WIBB Airport Information

Runway Information
Runway 18 Length 7360 ft width 98 ft
Elevation 90 ft Threshold 0 ft Heading 182
Runway 36 Length 7360 ft Width 98 ft
Elevation 87 ft Threshold 0 ft Heading 2
Airport Frequencies
Type APP Name PEKANBARU Frequency 120.8 MHZ
Type TWR Name SYARIF TWR Frequency 118.1 MHZ
Airport Navaids
Type NDB Name Pekanbaru Frequency 350 KHZ
Type VOR-DME Name Pekanbaru Frequency 112100 KHZ
Airport Weather Information & NOTAM
ADDS - METARS form results

(1030 UTC 21 May 2019)
Data provider http://aviationweather.gov/metar/data/
 
METAR text: WIBB 211000Z 18005KT 8000 FEW013 32/24 Q1007
Conditions at: WIBB (PAKANBARU/SIMPAN, ID) observed 1000 UTC 21 May 2019
Temperature: 32.0°C (90°F)
Dewpoint: 24.0°C (75°F) [RH = 63%]
Pressure (altimeter): 29.73 inches Hg (1007.0 mb)
Winds: from the S (180 degrees) at 6 MPH (5 knots; 2.6 m/s)
Visibility: 5 miles ( 8 km)
Ceiling: at least 12,000 feet AGL
Clouds: few clouds at 1300 feet AGL
Weather: no significant weather observed at this time